createdAt,value
2018-06-09T00:00:14.204Z,3.35
2018-06-09T00:00:46.891Z,3.33
2018-06-09T00:01:19.570Z,3.25
2018-06-09T00:01:52.232Z,3.65
2018-06-09T00:02:24.871Z,3.62
2018-06-09T00:02:57.526Z,3.47
2018-06-09T00:03:30.196Z,3.60
2018-06-09T00:04:02.938Z,3.58
2018-06-09T00:05:39.003Z,3.45
2018-06-09T00:06:11.666Z,3.77
2018-06-09T00:06:44.327Z,3.50
2018-06-09T00:07:16.982Z,3.60
2018-06-09T00:07:49.679Z,3.55
2018-06-09T00:08:22.354Z,2.75
2018-06-09T00:08:55.043Z,3.50
2018-06-09T00:09:27.669Z,3.05
2018-06-09T00:10:00.366Z,3.60
2018-06-09T00:10:33.070Z,3.98
2018-06-09T00:11:05.742Z,4.12
2018-06-09T00:11:38.411Z,3.25
2018-06-09T00:12:11.082Z,3.70
2018-06-09T00:12:43.754Z,3.40
2018-06-09T00:13:16.348Z,3.25
2018-06-09T00:13:49.015Z,3.05
2018-06-09T00:14:21.698Z,3.20
2018-06-09T00:14:54.386Z,3.22
2018-06-09T00:15:27.039Z,3.45
2018-06-09T00:15:59.722Z,3.98
2018-06-09T00:16:32.406Z,3.50
2018-06-09T00:17:05.104Z,3.27
2018-06-09T00:17:37.779Z,3.52
2018-06-09T00:18:10.381Z,3.20
2018-06-09T00:18:43.039Z,3.60
2018-06-09T00:19:15.719Z,3.08
2018-06-09T00:19:48.375Z,3.30
2018-06-09T00:20:21.058Z,3.02
2018-06-09T00:20:53.767Z,3.10
2018-06-09T00:21:26.434Z,3.08
2018-06-09T00:21:59.091Z,2.92
2018-06-09T00:22:31.742Z,2.85
2018-06-09T00:23:05.101Z,3.47
2018-06-09T00:23:37.782Z,3.00
2018-06-09T00:24:10.447Z,3.40
2018-06-09T00:24:43.110Z,3.50
2018-06-09T00:25:15.775Z,3.22
2018-06-09T00:25:48.510Z,4.00
2018-06-09T00:26:21.183Z,3.20
2018-06-09T00:26:53.852Z,2.85
2018-06-09T00:27:26.528Z,3.95
2018-06-09T00:27:59.203Z,2.87
2018-06-09T00:28:31.870Z,3.65
2018-06-09T00:29:04.588Z,2.45
2018-06-09T00:29:37.256Z,2.90
2018-06-09T00:30:10.032Z,3.60
2018-06-09T00:30:42.692Z,3.33
2018-06-09T00:31:15.374Z,3.35
2018-06-09T00:31:48.051Z,3.12
2018-06-09T00:32:20.895Z,3.00
2018-06-09T00:32:53.582Z,3.35
2018-06-09T00:33:26.189Z,3.42
2018-06-09T00:35:02.394Z,3.00
2018-06-09T00:35:35.070Z,2.75
2018-06-09T00:37:11.362Z,3.85
2018-06-09T00:37:44.010Z,3.60
2018-06-09T00:38:16.662Z,3.10
2018-06-09T00:38:49.331Z,3.50
2018-06-09T00:39:22.040Z,3.30
2018-06-09T00:39:54.822Z,3.87
2018-06-09T00:40:27.495Z,3.90
2018-06-09T00:41:00.154Z,3.55
2018-06-09T00:41:32.855Z,3.45
2018-06-09T00:42:05.583Z,3.20
2018-06-09T00:42:38.294Z,3.27
2018-06-09T00:43:17.586Z,3.42
2018-06-09T00:43:50.242Z,3.30
2018-06-09T00:44:22.898Z,3.70
2018-06-09T00:44:55.580Z,3.70
2018-06-09T00:45:28.270Z,2.92
2018-06-09T00:46:00.960Z,3.65
2018-06-09T00:46:33.662Z,3.27
2018-06-09T00:47:06.435Z,3.80
2018-06-09T00:47:39.124Z,2.85
2018-06-09T00:48:11.779Z,3.35
2018-06-09T00:48:44.458Z,3.17
2018-06-09T00:49:17.139Z,3.40
2018-06-09T00:49:49.809Z,3.50
2018-06-09T00:50:22.474Z,3.52
2018-06-09T00:50:55.151Z,3.50
2018-06-09T00:51:27.799Z,3.65
2018-06-09T00:52:00.466Z,3.60
2018-06-09T00:52:33.178Z,3.27
2018-06-09T00:53:05.863Z,3.70
2018-06-09T00:53:38.542Z,3.52
2018-06-09T00:54:11.203Z,3.42
2018-06-09T00:54:43.863Z,3.77
2018-06-09T00:55:16.556Z,3.85
2018-06-09T00:55:49.285Z,3.70
2018-06-09T00:56:33.470Z,3.85
2018-06-09T00:57:06.107Z,3.08
2018-06-09T00:57:38.777Z,3.22
2018-06-09T00:58:11.618Z,2.92
2018-06-09T00:58:44.281Z,3.00
2018-06-09T00:59:16.935Z,3.47
2018-06-09T00:59:49.638Z,3.75
2018-06-09T01:00:22.302Z,3.35
2018-06-09T01:00:55.011Z,3.55
2018-06-09T01:01:27.713Z,3.30
2018-06-09T01:02:00.911Z,3.65
2018-06-09T01:02:33.931Z,3.50
2018-06-09T01:03:06.659Z,3.02
2018-06-09T01:03:39.358Z,3.40
2018-06-09T01:04:12.032Z,3.30
2018-06-09T01:04:44.702Z,3.05
2018-06-09T01:05:17.371Z,3.98
2018-06-09T01:05:50.038Z,3.17
2018-06-09T01:06:22.730Z,3.47
2018-06-09T01:06:55.326Z,3.62
2018-06-09T01:07:28.015Z,2.70
2018-06-09T01:08:00.690Z,4.30
2018-06-09T01:08:33.402Z,3.30
2018-06-09T01:09:07.394Z,3.35
2018-06-09T01:09:39.998Z,3.52
2018-06-09T01:10:12.678Z,3.40
2018-06-09T01:10:45.366Z,3.62
2018-06-09T01:11:18.070Z,3.00
2018-06-09T01:11:50.752Z,2.90
2018-06-09T01:12:23.410Z,3.10
2018-06-09T01:12:56.098Z,3.12
2018-06-09T01:13:28.770Z,3.65
2018-06-09T01:14:01.427Z,3.42
2018-06-09T01:14:34.142Z,3.10
2018-06-09T01:15:06.834Z,3.70
2018-06-09T01:15:39.507Z,3.40
2018-06-09T01:16:12.187Z,3.10
2018-06-09T01:16:44.887Z,3.45
2018-06-09T01:17:17.554Z,3.47
2018-06-09T01:17:50.222Z,3.60
2018-06-09T01:18:22.947Z,2.95
2018-06-09T01:18:55.590Z,4.05
2018-06-09T01:19:28.307Z,3.33
2018-06-09T01:20:01.081Z,3.70
2018-06-09T01:20:34.900Z,3.47
2018-06-09T01:21:07.580Z,3.33
2018-06-09T01:21:40.239Z,3.15
2018-06-09T01:22:12.907Z,3.62
2018-06-09T01:22:45.555Z,3.67
2018-06-09T01:23:18.258Z,3.42
2018-06-09T01:23:50.922Z,3.75
2018-06-09T01:24:23.586Z,3.25
2018-06-09T01:24:56.238Z,3.30
2018-06-09T01:25:28.979Z,3.50
2018-06-09T01:26:01.670Z,3.17
2018-06-09T01:26:34.371Z,3.58
2018-06-09T01:27:07.047Z,3.85
2018-06-09T01:27:39.734Z,3.50
2018-06-09T01:28:12.414Z,2.98
2018-06-09T01:28:45.056Z,3.70
2018-06-09T01:29:17.726Z,3.12
2018-06-09T01:29:50.394Z,3.42
2018-06-09T01:30:23.067Z,3.30
2018-06-09T01:30:55.746Z,3.65
2018-06-09T01:31:28.422Z,3.77
2018-06-09T01:32:01.294Z,2.92
2018-06-09T01:32:34.010Z,3.00
2018-06-09T01:33:06.710Z,3.65
2018-06-09T01:33:39.382Z,3.35
2018-06-09T01:34:12.046Z,3.52
2018-06-09T01:34:44.682Z,2.95
2018-06-09T01:35:17.346Z,3.98
2018-06-09T01:35:50.006Z,3.55
2018-06-09T01:36:22.690Z,3.30
2018-06-09T01:36:55.370Z,3.60
2018-06-09T01:37:28.026Z,3.22
2018-06-09T01:38:00.683Z,3.22
2018-06-09T01:38:34.341Z,3.55
2018-06-09T01:39:08.023Z,3.37
2018-06-09T01:39:40.707Z,3.40
2018-06-09T01:40:13.455Z,3.50
2018-06-09T01:40:46.122Z,3.20
2018-06-09T01:41:18.702Z,4.08
2018-06-09T01:41:51.301Z,3.20
2018-06-09T01:42:23.962Z,3.95
2018-06-09T01:42:56.630Z,2.98
2018-06-09T01:43:29.310Z,3.50
2018-06-09T01:44:01.974Z,3.45
2018-06-09T01:44:34.654Z,3.20
2018-06-09T01:45:07.347Z,3.15
2018-06-09T01:45:40.031Z,3.52
2018-06-09T01:46:12.695Z,3.20
2018-06-09T01:46:45.351Z,3.27
2018-06-09T01:47:18.047Z,3.42
2018-06-09T01:47:50.738Z,3.67
2018-06-09T01:48:23.402Z,3.25
2018-06-09T01:48:56.090Z,4.00
2018-06-09T01:49:28.674Z,3.00
2018-06-09T01:50:01.345Z,2.87
2018-06-09T01:50:34.087Z,3.98
2018-06-09T01:51:06.767Z,3.20
2018-06-09T01:51:39.422Z,3.52
2018-06-09T01:52:12.106Z,3.45
2018-06-09T01:52:44.817Z,3.58
2018-06-09T01:53:17.538Z,3.35
2018-06-09T01:53:50.153Z,3.30
2018-06-09T01:54:22.857Z,3.30
2018-06-09T01:54:55.510Z,3.47
2018-06-09T01:55:28.174Z,3.83
2018-06-09T01:56:00.835Z,3.77
2018-06-09T01:56:33.513Z,3.47
2018-06-09T01:57:06.182Z,3.58
2018-06-09T01:57:38.870Z,3.40
2018-06-09T01:58:11.554Z,3.67
2018-06-09T01:58:44.202Z,3.27
2018-06-09T01:59:16.862Z,3.17
2018-06-09T01:59:49.538Z,3.30
2018-06-09T02:00:22.211Z,3.40
2018-06-09T02:00:54.905Z,3.30
2018-06-09T02:01:27.679Z,3.50
2018-06-09T02:02:00.333Z,3.67
2018-06-09T02:02:32.994Z,3.50
2018-06-09T02:03:05.686Z,3.27
2018-06-09T02:03:38.390Z,3.30
2018-06-09T02:04:11.049Z,3.98
2018-06-09T02:04:43.730Z,3.60
2018-06-09T02:05:16.378Z,3.70
2018-06-09T02:05:49.030Z,3.35
2018-06-09T02:06:21.698Z,3.47
2018-06-09T02:06:54.358Z,4.35
2018-06-09T02:07:27.007Z,3.50
2018-06-09T02:07:59.593Z,3.20
2018-06-09T02:08:32.181Z,3.42
2018-06-09T02:09:07.745Z,3.27
2018-06-09T02:09:40.403Z,3.55
2018-06-09T02:10:13.079Z,3.80
2018-06-09T02:10:45.770Z,3.75
2018-06-09T02:11:18.414Z,3.80
2018-06-09T02:11:51.090Z,3.87
2018-06-09T02:12:23.810Z,3.80
2018-06-09T02:12:56.482Z,3.77
2018-06-09T02:13:29.159Z,4.05
2018-06-09T02:14:01.866Z,3.55
2018-06-09T02:14:34.574Z,3.45
2018-06-09T02:15:07.287Z,4.28
2018-06-09T02:15:39.991Z,4.15
2018-06-09T02:16:12.670Z,3.87
2018-06-09T02:16:45.342Z,4.08
2018-06-09T02:17:18.015Z,3.45
2018-06-09T02:17:50.690Z,3.70
2018-06-09T02:18:23.427Z,3.90
2018-06-09T02:18:56.102Z,4.00
2018-06-09T02:19:28.794Z,4.10
2018-06-09T02:20:01.643Z,3.75
2018-06-09T02:20:34.305Z,3.72
2018-06-09T02:21:06.994Z,4.00
2018-06-09T02:21:39.653Z,4.08
2018-06-09T02:22:12.323Z,3.27
2018-06-09T02:22:44.967Z,4.30
2018-06-09T02:23:17.623Z,4.12
2018-06-09T02:23:50.278Z,3.37
2018-06-09T02:24:23.007Z,4.37
2018-06-09T02:24:55.662Z,3.90
2018-06-09T02:25:28.369Z,3.95
2018-06-09T02:26:01.091Z,3.90
2018-06-09T02:26:33.755Z,4.12
2018-06-09T02:27:06.443Z,4.45
2018-06-09T02:27:39.110Z,3.47
2018-06-09T02:28:11.762Z,3.40
2018-06-09T02:28:44.421Z,4.00
2018-06-09T02:29:17.090Z,4.47
2018-06-09T02:29:49.750Z,4.30
2018-06-09T02:30:22.412Z,4.25
2018-06-09T02:30:55.102Z,4.22
2018-06-09T02:31:27.761Z,4.08
2018-06-09T02:32:00.430Z,3.65
2018-06-09T02:32:33.091Z,3.40
2018-06-09T02:33:05.794Z,4.35
2018-06-09T02:33:38.467Z,3.75
2018-06-09T02:34:11.133Z,4.47
2018-06-09T02:34:43.818Z,3.65
2018-06-09T02:35:16.479Z,3.50
2018-06-09T02:35:49.142Z,4.25
2018-06-09T02:36:21.842Z,3.58
2018-06-09T02:36:54.451Z,4.05
2018-06-09T02:37:27.121Z,4.15
2018-06-09T02:37:59.946Z,3.55
2018-06-09T02:38:32.609Z,3.20
2018-06-09T02:39:06.762Z,3.25
2018-06-09T02:39:39.427Z,3.75
2018-06-09T02:40:12.122Z,3.60
2018-06-09T02:40:44.827Z,3.72
2018-06-09T02:41:17.543Z,4.03
2018-06-09T02:41:50.225Z,3.42
2018-06-09T02:42:22.922Z,3.83
2018-06-09T02:42:55.591Z,3.62
2018-06-09T02:43:28.238Z,3.87
2018-06-09T02:44:00.904Z,4.58
2018-06-09T02:44:33.571Z,3.72
2018-06-09T02:45:06.184Z,4.05
2018-06-09T02:45:38.830Z,3.33
2018-06-09T02:46:11.495Z,4.10
2018-06-09T02:46:44.162Z,3.65
2018-06-09T02:47:16.862Z,4.17
2018-06-09T02:47:49.530Z,3.40
2018-06-09T02:48:22.942Z,4.25
2018-06-09T02:48:55.604Z,4.10
2018-06-09T02:49:28.307Z,4.10
2018-06-09T02:50:00.991Z,3.67
2018-06-09T02:50:33.583Z,4.42
2018-06-09T02:51:06.255Z,4.03
2018-06-09T02:51:38.907Z,3.33
2018-06-09T02:52:11.554Z,4.10
2018-06-09T02:52:44.246Z,3.47
2018-06-09T02:53:16.916Z,3.80
2018-06-09T02:53:49.582Z,3.80
2018-06-09T02:54:22.250Z,4.25
2018-06-09T02:54:54.931Z,3.62
2018-06-09T02:55:27.591Z,4.30
2018-06-09T02:56:00.237Z,3.92
2018-06-09T02:56:32.938Z,3.52
2018-06-09T02:57:05.642Z,3.77
2018-06-09T02:57:38.306Z,4.03
2018-06-09T02:58:11.033Z,3.90
2018-06-09T02:58:43.686Z,4.05
2018-06-09T02:59:16.366Z,3.80
2018-06-09T02:59:49.022Z,3.83
2018-06-09T03:00:21.690Z,3.75
2018-06-09T03:00:54.383Z,4.03
2018-06-09T03:01:27.058Z,4.15
2018-06-09T03:01:59.778Z,4.25
2018-06-09T03:02:32.466Z,4.08
2018-06-09T03:03:05.138Z,3.42
2018-06-09T03:03:37.830Z,4.15
2018-06-09T03:04:10.495Z,4.10
2018-06-09T03:04:49.962Z,3.75
2018-06-09T03:05:22.639Z,4.35
2018-06-09T03:05:55.290Z,4.03
2018-06-09T03:06:27.960Z,4.15
2018-06-09T03:07:00.633Z,3.58
2018-06-09T03:07:33.315Z,3.12
2018-06-09T03:08:06.002Z,4.20
2018-06-09T03:08:38.711Z,3.70
2018-06-09T03:09:11.396Z,3.55
2018-06-09T03:09:44.103Z,3.55
2018-06-09T03:10:16.754Z,4.17
2018-06-09T03:10:49.446Z,4.35
2018-06-09T03:11:22.121Z,3.92
2018-06-09T03:11:54.827Z,3.35
2018-06-09T03:12:27.498Z,3.80
2018-06-09T03:13:00.305Z,3.60
2018-06-09T03:13:33.015Z,3.40
2018-06-09T03:14:05.644Z,3.80
2018-06-09T03:14:38.294Z,4.47
2018-06-09T03:15:10.979Z,3.98
2018-06-09T03:15:43.664Z,3.83
2018-06-09T03:16:16.322Z,3.87
2018-06-09T03:16:48.987Z,3.40
2018-06-09T03:17:21.738Z,3.47
2018-06-09T03:17:54.387Z,4.20
2018-06-09T03:18:26.978Z,3.35
2018-06-09T03:18:59.831Z,3.90
2018-06-09T03:19:32.590Z,3.95
2018-06-09T03:20:05.293Z,3.30
2018-06-09T03:20:37.958Z,4.12
2018-06-09T03:21:10.630Z,3.80
2018-06-09T03:21:43.326Z,3.27
2018-06-09T03:22:15.986Z,4.33
2018-06-09T03:22:48.682Z,4.60
2018-06-09T03:23:21.378Z,3.55
2018-06-09T03:23:54.030Z,3.95
2018-06-09T03:24:26.698Z,3.72
2018-06-09T03:24:59.398Z,3.30
2018-06-09T03:25:32.099Z,4.53
2018-06-09T03:26:04.830Z,4.45
2018-06-09T03:26:37.494Z,3.80
2018-06-09T03:27:10.182Z,3.35
2018-06-09T03:27:42.831Z,3.85
2018-06-09T03:28:15.507Z,3.58
2018-06-09T03:28:48.199Z,4.10
2018-06-09T03:29:20.862Z,3.70
2018-06-09T03:29:53.534Z,3.90
2018-06-09T03:30:26.227Z,3.90
2018-06-09T03:30:58.886Z,4.10
2018-06-09T03:31:31.558Z,4.45
2018-06-09T03:32:04.235Z,3.75
2018-06-09T03:32:36.951Z,4.30
2018-06-09T03:33:09.605Z,3.95
2018-06-09T03:33:42.258Z,4.03
2018-06-09T03:34:14.937Z,3.50
2018-06-09T03:34:47.594Z,4.53
2018-06-09T03:35:20.259Z,4.55
2018-06-09T03:35:52.942Z,4.42
2018-06-09T03:36:25.634Z,3.98
2018-06-09T03:36:58.318Z,4.22
2018-06-09T03:37:31.014Z,3.90
2018-06-09T03:38:43.110Z,4.20
2018-06-09T03:39:15.782Z,4.10
2018-06-09T03:39:48.442Z,4.25
2018-06-09T03:40:21.147Z,3.85
2018-06-09T03:40:53.859Z,4.17
2018-06-09T03:41:26.534Z,4.15
2018-06-09T03:41:59.199Z,4.35
2018-06-09T03:42:31.934Z,4.45
2018-06-09T03:43:04.707Z,4.58
2018-06-09T03:43:37.351Z,4.22
2018-06-09T03:44:10.023Z,4.50
2018-06-09T03:44:42.708Z,5.70
2018-06-09T03:45:15.354Z,4.47
2018-06-09T03:45:48.014Z,4.37
2018-06-09T03:46:20.691Z,4.17
2018-06-09T03:46:53.343Z,4.10
2018-06-09T03:47:26.003Z,4.22
2018-06-09T03:47:58.680Z,4.30
2018-06-09T03:48:31.362Z,4.35
2018-06-09T03:49:04.226Z,4.45
2018-06-09T03:49:36.893Z,4.47
2018-06-09T03:50:09.554Z,3.83
2018-06-09T03:50:42.235Z,4.10
2018-06-09T03:51:14.814Z,4.17
2018-06-09T03:51:47.498Z,4.53
2018-06-09T03:52:20.170Z,4.90
2018-06-09T03:52:52.811Z,3.98
2018-06-09T03:53:25.469Z,4.37
2018-06-09T03:53:58.119Z,4.62
2018-06-09T03:54:30.783Z,4.42
2018-06-09T03:55:03.531Z,4.58
2018-06-09T03:55:36.199Z,4.62
2018-06-09T03:56:08.880Z,4.70
2018-06-09T03:56:41.545Z,4.75
2018-06-09T03:57:14.223Z,4.28
2018-06-09T03:57:46.906Z,4.40
2018-06-09T03:58:19.638Z,4.83
2018-06-09T03:58:52.278Z,4.97
2018-06-09T03:59:24.982Z,4.30
2018-06-09T03:59:57.631Z,5.50
2018-06-09T04:00:30.302Z,4.85
2018-06-09T04:01:02.982Z,4.58
2018-06-09T04:01:35.678Z,4.92
2018-06-09T04:02:08.350Z,4.53
2018-06-09T04:02:41.052Z,4.17
2018-06-09T04:03:13.715Z,4.97
2018-06-09T04:03:46.371Z,4.90
2018-06-09T04:04:19.046Z,4.25
2018-06-09T04:04:51.722Z,3.75
2018-06-09T04:05:24.395Z,5.12
2018-06-09T04:05:57.050Z,5.30
2018-06-09T04:06:29.723Z,6.08
2018-06-09T04:07:02.415Z,4.70
2018-06-09T04:07:35.203Z,4.90
2018-06-09T04:08:07.919Z,5.03
2018-06-09T04:08:40.579Z,5.20
2018-06-09T04:09:13.218Z,5.30
2018-06-09T04:09:45.878Z,4.92
2018-06-09T04:10:18.543Z,5.08
2018-06-09T04:10:51.203Z,6.00
2018-06-09T04:11:23.962Z,4.37
2018-06-09T04:11:56.615Z,5.00
2018-06-09T04:12:29.294Z,4.58
2018-06-09T04:13:01.874Z,5.28
2018-06-09T04:13:34.563Z,5.20
2018-06-09T04:14:07.243Z,5.55
2018-06-09T04:14:39.906Z,5.40
2018-06-09T04:15:12.587Z,4.50
2018-06-09T04:15:45.242Z,5.17
2018-06-09T04:16:17.898Z,4.60
2018-06-09T04:16:50.578Z,5.70
2018-06-09T04:17:23.247Z,5.10
2018-06-09T04:17:55.895Z,5.30
2018-06-09T04:18:28.558Z,4.90
2018-06-09T04:19:01.237Z,5.20
2018-06-09T04:19:33.906Z,4.90
2018-06-09T04:20:06.573Z,4.92
2018-06-09T04:20:39.252Z,4.40
2018-06-09T04:21:11.919Z,4.70
2018-06-09T04:21:44.514Z,4.97
2018-06-09T04:22:17.175Z,4.97
2018-06-09T04:22:49.827Z,4.67
2018-06-09T04:23:22.484Z,4.65
2018-06-09T04:23:55.169Z,5.12
2018-06-09T04:24:27.778Z,4.22
2018-06-09T04:25:00.430Z,5.05
2018-06-09T04:25:33.081Z,4.72
2018-06-09T04:26:05.765Z,4.40
2018-06-09T04:26:38.434Z,4.53
2018-06-09T04:27:11.110Z,5.25
2018-06-09T04:27:43.771Z,5.47
2018-06-09T04:28:16.542Z,5.37
2018-06-09T04:28:49.174Z,5.58
2018-06-09T04:29:21.829Z,4.80
2018-06-09T04:29:54.558Z,4.35
2018-06-09T04:30:27.214Z,5.35
2018-06-09T04:30:59.870Z,4.90
2018-06-09T04:31:32.578Z,4.50
2018-06-09T04:32:05.255Z,5.00
2018-06-09T04:32:37.942Z,4.53
2018-06-09T04:33:10.598Z,5.08
2018-06-09T04:33:43.267Z,4.10
2018-06-09T04:34:15.942Z,4.20
2018-06-09T04:34:48.612Z,4.10
2018-06-09T04:35:21.327Z,3.72
2018-06-09T04:35:53.994Z,4.95
2018-06-09T04:36:26.670Z,4.30
2018-06-09T04:36:59.347Z,4.00
2018-06-09T04:37:32.043Z,4.20
2018-06-09T04:38:04.810Z,4.80
2018-06-09T04:38:37.471Z,4.22
2018-06-09T04:39:10.147Z,4.60
2018-06-09T04:39:42.810Z,4.62
2018-06-09T04:40:15.469Z,4.00
2018-06-09T04:40:48.202Z,4.80
2018-06-09T04:41:20.896Z,4.55
2018-06-09T04:41:53.572Z,4.37
2018-06-09T04:42:26.259Z,4.58
2018-06-09T04:42:58.934Z,4.40
2018-06-09T04:43:31.690Z,4.05
2018-06-09T04:44:04.370Z,4.30
2018-06-09T04:44:37.059Z,4.58
2018-06-09T04:45:09.739Z,4.92
2018-06-09T04:45:42.398Z,5.22
2018-06-09T04:46:15.095Z,4.60
2018-06-09T04:46:47.754Z,4.95
2018-06-09T04:47:20.438Z,4.47
2018-06-09T04:47:53.088Z,4.17
2018-06-09T04:48:25.758Z,4.85
2018-06-09T04:48:58.410Z,5.03
2018-06-09T04:49:31.105Z,5.10
2018-06-09T04:50:03.823Z,4.90
2018-06-09T04:50:36.507Z,4.35
2018-06-09T04:51:09.183Z,4.12
2018-06-09T04:51:41.859Z,4.80
2018-06-09T04:52:14.562Z,4.40
2018-06-09T04:52:47.252Z,4.62
2018-06-09T04:53:19.958Z,4.33
2018-06-09T04:53:52.631Z,5.35
2018-06-09T04:54:25.307Z,5.65
2018-06-09T04:54:57.978Z,5.12
2018-06-09T04:55:30.642Z,4.75
2018-06-09T04:56:03.370Z,4.75
2018-06-09T04:56:36.026Z,5.35
2018-06-09T04:57:08.771Z,5.05
2018-06-09T04:57:41.430Z,4.60
2018-06-09T04:58:14.072Z,5.05
2018-06-09T04:58:46.723Z,4.90
2018-06-09T04:59:19.446Z,5.35
2018-06-09T04:59:52.124Z,4.78
2018-06-09T05:00:24.835Z,4.80
2018-06-09T05:00:57.490Z,4.50
2018-06-09T05:01:30.162Z,4.62
2018-06-09T05:02:02.860Z,5.25
2018-06-09T05:02:35.638Z,5.58
2018-06-09T05:03:08.291Z,4.53
2018-06-09T05:03:40.975Z,4.60
2018-06-09T05:04:13.561Z,4.28
2018-06-09T05:04:46.202Z,4.90
2018-06-09T05:05:18.866Z,4.83
2018-06-09T05:05:51.566Z,4.45
2018-06-09T05:06:24.258Z,5.12
2018-06-09T05:06:56.926Z,4.87
2018-06-09T05:07:29.591Z,5.08
2018-06-09T05:08:02.331Z,4.62
2018-06-09T05:08:34.994Z,4.50
2018-06-09T05:09:08.091Z,5.33
2018-06-09T05:09:41.026Z,4.20
2018-06-09T05:10:13.739Z,4.90
2018-06-09T05:10:46.330Z,5.30
2018-06-09T05:11:19.014Z,4.90
2018-06-09T05:11:51.690Z,4.40
2018-06-09T05:12:24.370Z,5.15
2018-06-09T05:12:57.070Z,5.37
2018-06-09T05:13:29.755Z,5.03
2018-06-09T05:14:02.683Z,5.05
2018-06-09T05:14:35.362Z,4.70
2018-06-09T05:15:08.027Z,5.00
2018-06-09T05:15:40.693Z,5.42
2018-06-09T05:16:13.363Z,5.03
2018-06-09T05:16:46.034Z,4.92
2018-06-09T05:17:18.690Z,5.10
2018-06-09T05:17:51.495Z,4.40
2018-06-09T05:18:24.180Z,4.55
2018-06-09T05:18:56.875Z,5.05
2018-06-09T05:19:29.547Z,5.05
2018-06-09T05:20:02.292Z,4.87
2018-06-09T05:20:34.954Z,5.10
2018-06-09T05:21:07.610Z,4.70
2018-06-09T05:21:40.270Z,4.45
2018-06-09T05:22:12.853Z,5.58
2018-06-09T05:22:45.498Z,5.37
2018-06-09T05:23:18.078Z,4.45
2018-06-09T05:23:50.645Z,5.40
2018-06-09T05:24:23.367Z,4.53
2018-06-09T05:24:56.028Z,5.45
2018-06-09T05:25:28.692Z,4.55
2018-06-09T05:26:01.347Z,4.92
2018-06-09T05:26:34.001Z,4.80
2018-06-09T05:27:06.658Z,4.97
2018-06-09T05:27:39.388Z,4.72
2018-06-09T05:28:12.052Z,4.92
2018-06-09T05:28:44.723Z,5.03
2018-06-09T05:29:17.392Z,5.28
2018-06-09T05:29:50.134Z,5.35
2018-06-09T05:30:22.787Z,5.30
2018-06-09T05:30:55.450Z,4.40
2018-06-09T05:31:28.030Z,4.92
2018-06-09T05:32:00.675Z,4.83
2018-06-09T05:32:33.376Z,5.03
2018-06-09T05:33:05.978Z,4.85
2018-06-09T05:33:38.666Z,4.60
2018-06-09T05:34:11.343Z,4.58
2018-06-09T05:34:44.010Z,4.80
2018-06-09T05:35:16.710Z,5.10
2018-06-09T05:35:49.362Z,4.62
2018-06-09T05:36:22.023Z,5.20
2018-06-09T05:36:54.687Z,4.55
2018-06-09T05:37:27.326Z,5.03
2018-06-09T05:37:59.982Z,4.97
2018-06-09T05:38:32.569Z,5.05
2018-06-09T05:39:07.082Z,4.45
2018-06-09T05:39:39.742Z,4.75
2018-06-09T05:40:12.394Z,4.30
2018-06-09T05:40:45.090Z,5.15
2018-06-09T05:41:17.799Z,4.53
2018-06-09T05:41:50.487Z,4.40
2018-06-09T05:42:23.172Z,4.58
2018-06-09T05:42:55.914Z,4.60
2018-06-09T05:43:28.582Z,4.28
2018-06-09T05:44:01.255Z,5.03
2018-06-09T05:44:33.926Z,5.55
2018-06-09T05:45:06.578Z,4.92
2018-06-09T05:45:39.271Z,4.87
2018-06-09T05:46:11.974Z,4.85
2018-06-09T05:46:44.650Z,4.50
2018-06-09T05:47:17.310Z,4.70
2018-06-09T05:47:50.058Z,4.35
2018-06-09T05:48:22.741Z,4.62
2018-06-09T05:48:55.398Z,4.40
2018-06-09T05:49:28.105Z,4.85
2018-06-09T05:50:00.766Z,4.70
2018-06-09T05:50:33.438Z,4.62
2018-06-09T05:51:06.635Z,5.00
2018-06-09T05:51:39.338Z,4.55
2018-06-09T05:52:12.006Z,4.87
2018-06-09T05:52:44.663Z,4.15
2018-06-09T05:53:17.319Z,4.80
2018-06-09T05:53:49.994Z,4.65
2018-06-09T05:54:22.679Z,4.40
2018-06-09T05:54:55.335Z,4.17
2018-06-09T05:55:27.979Z,4.42
2018-06-09T05:56:00.663Z,4.62
2018-06-09T05:56:33.379Z,4.33
2018-06-09T05:57:06.095Z,4.97
2018-06-09T05:57:38.759Z,4.25
2018-06-09T05:58:11.435Z,4.67
2018-06-09T05:58:44.097Z,4.50
2018-06-09T05:59:16.746Z,4.50
2018-06-09T05:59:49.415Z,3.90
2018-06-09T06:00:22.109Z,3.95
2018-06-09T06:00:54.782Z,4.35
2018-06-09T06:01:27.486Z,4.10
2018-06-09T06:02:00.195Z,4.35
2018-06-09T06:02:32.902Z,3.50
2018-06-09T06:03:05.621Z,3.87
2018-06-09T06:03:38.307Z,4.35
2018-06-09T06:04:10.970Z,3.80
2018-06-09T06:04:43.651Z,3.77
2018-06-09T06:05:16.331Z,3.92
2018-06-09T06:05:49.009Z,3.95
2018-06-09T06:06:21.710Z,3.83
2018-06-09T06:06:54.389Z,4.25
2018-06-09T06:07:26.981Z,4.12
2018-06-09T06:07:59.739Z,4.43
2018-06-09T06:08:32.399Z,3.60
2018-06-09T06:09:06.992Z,3.77
2018-06-09T06:09:39.662Z,3.63
2018-06-09T06:10:12.346Z,4.50
2018-06-09T06:10:45.043Z,4.07
2018-06-09T06:11:17.714Z,4.00
2018-06-09T06:11:50.378Z,3.97
2018-06-09T06:12:23.051Z,3.93
2018-06-09T06:12:55.724Z,3.63
2018-06-09T06:13:28.414Z,3.70
2018-06-09T06:14:01.103Z,3.70
2018-06-09T06:14:33.808Z,3.47
2018-06-09T06:15:06.507Z,3.33
2018-06-09T06:15:39.182Z,3.60
2018-06-09T06:16:11.850Z,3.53
2018-06-09T06:16:45.330Z,3.47
2018-06-09T06:17:18.055Z,3.43
2018-06-09T06:17:50.734Z,3.63
2018-06-09T06:18:23.490Z,3.43
2018-06-09T06:18:56.173Z,3.07
2018-06-09T06:19:28.862Z,3.50
2018-06-09T06:20:01.539Z,3.17
2018-06-09T06:20:34.220Z,3.03
2018-06-09T06:21:06.906Z,2.90
2018-06-09T06:21:39.593Z,3.13
2018-06-09T06:22:12.279Z,3.50
2018-06-09T06:22:44.978Z,3.20
2018-06-09T06:23:17.638Z,2.50
2018-06-09T06:23:50.315Z,2.60
2018-06-09T06:24:22.998Z,3.60
2018-06-09T06:24:55.653Z,2.90
2018-06-09T06:25:28.338Z,2.40
2018-06-09T06:26:01.015Z,3.07
2018-06-09T06:26:33.727Z,3.17
2018-06-09T06:27:07.195Z,2.70
2018-06-09T06:27:40.087Z,2.50
2018-06-09T06:28:12.718Z,3.17
2018-06-09T06:28:45.387Z,2.63
2018-06-09T06:29:18.050Z,3.40
2018-06-09T06:29:50.759Z,2.70
2018-06-09T06:30:23.629Z,2.70
2018-06-09T06:30:56.386Z,2.90
2018-06-09T06:31:29.190Z,2.70
2018-06-09T06:32:02.224Z,2.63
2018-06-09T06:32:34.843Z,3.37
2018-06-09T06:33:07.514Z,3.10
2018-06-09T06:33:40.211Z,2.97
2018-06-09T06:34:12.911Z,2.83
2018-06-09T06:34:45.747Z,2.33
2018-06-09T06:35:18.381Z,2.87
2018-06-09T06:35:51.107Z,2.70
2018-06-09T06:36:23.935Z,2.80
2018-06-09T06:36:56.783Z,2.67
2018-06-09T06:37:29.686Z,2.57
2018-06-09T06:38:02.567Z,2.67
2018-06-09T06:38:35.413Z,2.60
2018-06-09T06:39:08.839Z,3.23
2018-06-09T06:39:41.514Z,2.87
2018-06-09T06:40:14.650Z,3.00
2018-06-09T06:40:47.496Z,2.67
2018-06-09T06:41:20.391Z,2.60
2018-06-09T06:41:53.279Z,2.87
2018-06-09T06:42:26.095Z,3.00
2018-06-09T06:42:58.870Z,2.43
2018-06-09T06:43:31.628Z,3.60
2018-06-09T06:44:04.362Z,2.97
2018-06-09T06:44:37.142Z,2.90
2018-06-09T06:45:09.844Z,2.57
2018-06-09T06:45:42.603Z,3.10
2018-06-09T06:46:15.311Z,2.57
2018-06-09T06:46:48.074Z,3.40
2018-06-09T06:47:20.858Z,2.93
2018-06-09T06:47:53.616Z,2.77
2018-06-09T06:48:26.343Z,2.67
2018-06-09T06:48:59.130Z,3.00
2018-06-09T06:49:31.786Z,3.37
2018-06-09T06:50:04.491Z,2.77
2018-06-09T06:50:37.334Z,3.07
2018-06-09T06:51:10.356Z,3.10
2018-06-09T06:51:43.366Z,3.27
2018-06-09T06:52:16.339Z,2.50
2018-06-09T06:52:49.175Z,3.40
2018-06-09T06:53:22.065Z,2.60
2018-06-09T06:53:54.839Z,2.70
2018-06-09T06:54:27.530Z,2.53
2018-06-09T06:55:00.303Z,3.23
2018-06-09T06:55:33.058Z,2.93
2018-06-09T06:56:05.866Z,2.80
2018-06-09T06:56:38.569Z,3.30
2018-06-09T06:57:11.398Z,3.57
2018-06-09T06:57:44.099Z,2.50
2018-06-09T06:58:16.863Z,2.60
2018-06-09T06:58:49.818Z,3.23
2018-06-09T06:59:22.506Z,2.70
2018-06-09T06:59:55.223Z,3.00
2018-06-09T07:00:27.902Z,2.80
2018-06-09T07:01:00.599Z,3.40
2018-06-09T07:01:33.473Z,3.03
2018-06-09T07:02:06.257Z,3.20
2018-06-09T07:02:39.053Z,2.77
2018-06-09T07:03:11.905Z,2.97
2018-06-09T07:03:44.571Z,3.20
2018-06-09T07:04:17.246Z,2.97
2018-06-09T07:04:49.922Z,3.07
2018-06-09T07:05:22.629Z,2.63
2018-06-09T07:05:55.423Z,2.47
2018-06-09T07:06:28.245Z,2.83
2018-06-09T07:07:01.030Z,2.70
2018-06-09T07:07:33.877Z,3.03
2018-06-09T07:08:06.843Z,2.33
2018-06-09T07:08:39.518Z,3.10
2018-06-09T07:09:12.266Z,2.53
2018-06-09T07:09:45.171Z,2.47
2018-06-09T07:10:17.942Z,2.87
2018-06-09T07:10:50.884Z,2.20
2018-06-09T07:11:23.546Z,2.77
2018-06-09T07:11:56.194Z,3.00
2018-06-09T07:12:28.862Z,2.93
2018-06-09T07:13:01.531Z,2.90
2018-06-09T07:13:34.303Z,3.00
2018-06-09T07:14:06.951Z,2.30
2018-06-09T07:14:39.637Z,3.13
2018-06-09T07:15:12.391Z,2.57
2018-06-09T07:15:45.143Z,2.90
2018-06-09T07:16:17.814Z,2.87
2018-06-09T07:16:50.486Z,3.57
2018-06-09T07:17:23.171Z,2.80
2018-06-09T07:17:56.414Z,3.00
2018-06-09T07:18:29.079Z,2.90
2018-06-09T07:19:01.756Z,2.70
2018-06-09T07:19:34.426Z,2.60